Danville, New Hampshire
Current Conditions -  °F | °C
As of 9:20 PM on Wednesday 26 Nov 2014 (Local Time) from KLWM Reporting Station
Light Snow Light Snow  
Wind Chill: 23°   Ceiling: 800
Heat Index: 33°   Visibility: 2mi
Dew Point: 31°   Wind: 15mph
Humidity: 92%   Direction: 360°N
Pressure: 29.78"   Gusts: NA
Location:  42.91°N, 71.12°W
Report Text: KLWM 270220Z 36013KT 2SM -SN BR BKN008 OVC014 01/M01 A2978 RMK AO2 RAE13SNB13 P0000 T00061006
Loading
Personal Weather Stations






























Interactive Weather Map New forecast layout! Learn more

10-Day Weather Forecast

Advertisements
Track Severe Weather on mobile